MET'MAP v2.0
soon released !

Expected late october,
this new version will be
more efficient, smarter,
and hosted on a brand new
server x3 powerfull...
...and still free !


Not compatible ?
Try the mobile version !

LOG IN : | Subscribe | Disclaimer | Who is Orbifly ? |
ICAO code :

TAF - LJMB Maribor - 14 Nov 2019 08:17 UTC - Data Source NOAA   


- Airport Elevation : 876 ft
- IATA code : MBX
- No reported NOTAMs.


LJMB - Maribor

Latest METAR recorded : 2015/08/11 08:00 LJMB 110800Z VRB01KT CAVOK 26/15 Q1015
TAF AMD TAF LJMB
Valid from the 14 at 06:00 until the 15 at 06:00 UTC


140617Z 1406/1506 01003KT 0300 FG VV002
BECMG 1408/1410 16005KT 8000 NSW SCT015 BKN035
PROB30
TEMPO 1411/1415 SCT015 SCT030
PROB40
TEMPO 1419/1506 6000 -RA SCT005 BKN015 OVC030

Source NOAA


MET'MAP, your aeronautical weather chart ! - Copyright ORBIFLY December 2007

Programming & Development : Alexandra Zaïnal
Co-Developer : Marc-Olivier Méhu
Technical & hardware support : Manuel Goepfert
Concept & Financing : Baudouin d'Aumeries